createdAt,value
2023-02-06T00:01:26.547Z,6.94
2023-02-06T00:03:53.589Z,6.94
2023-02-06T00:06:20.385Z,6.90
2023-02-06T00:08:47.336Z,6.90
2023-02-06T00:11:16.853Z,6.90
2023-02-06T00:13:45.001Z,6.88
2023-02-06T00:16:20.430Z,6.92
2023-02-06T00:18:47.348Z,6.92
2023-02-06T00:21:15.042Z,6.94
2023-02-06T00:23:42.056Z,6.96
2023-02-06T00:26:08.845Z,6.97
2023-02-06T00:28:35.683Z,6.96
2023-02-06T00:31:05.303Z,6.96
2023-02-06T00:33:32.123Z,6.94
2023-02-06T00:35:58.917Z,6.94
2023-02-06T00:38:25.755Z,6.93
2023-02-06T00:40:52.531Z,6.93
2023-02-06T00:43:25.100Z,6.92
2023-02-06T00:45:54.086Z,6.90
2023-02-06T00:48:20.930Z,6.87
2023-02-06T00:50:52.812Z,6.84
2023-02-06T00:53:19.729Z,6.82
2023-02-06T00:55:46.500Z,6.79
2023-02-06T00:58:13.467Z,6.79
2023-02-06T01:00:40.239Z,6.82
2023-02-06T01:03:06.979Z,6.82
2023-02-06T01:05:34.007Z,6.82
2023-02-06T01:08:02.777Z,6.83
2023-02-06T01:10:30.933Z,6.85
2023-02-06T01:12:57.692Z,6.85
2023-02-06T01:15:24.465Z,6.85
2023-02-06T01:17:51.221Z,6.86
2023-02-06T01:20:18.082Z,6.86
2023-02-06T01:22:44.902Z,6.88
2023-02-06T01:25:11.785Z,6.88
2023-02-06T01:27:39.320Z,6.89
2023-02-06T01:30:07.774Z,6.90
2023-02-06T01:32:39.866Z,6.89
2023-02-06T01:35:11.913Z,6.88
2023-02-06T01:37:41.036Z,6.87
2023-02-06T01:40:13.934Z,6.88
2023-02-06T01:42:40.917Z,6.89
2023-02-06T01:45:11.264Z,6.90
2023-02-06T01:47:38.056Z,6.90
2023-02-06T01:50:05.120Z,6.89
2023-02-06T01:52:31.961Z,6.88
2023-02-06T01:55:03.301Z,6.87
2023-02-06T01:57:31.773Z,6.85
2023-02-06T02:00:04.545Z,6.83
2023-02-06T02:02:32.503Z,6.83
2023-02-06T02:05:01.410Z,6.82
2023-02-06T02:07:35.760Z,6.83
2023-02-06T02:10:02.625Z,6.82
2023-02-06T02:12:29.382Z,6.84
2023-02-06T02:14:57.141Z,6.85
2023-02-06T02:17:55.855Z,6.86
2023-02-06T02:20:59.781Z,6.87
2023-02-06T02:24:07.751Z,6.86
2023-02-06T02:27:13.387Z,6.85
2023-02-06T02:30:39.673Z,6.83
2023-02-06T02:33:37.604Z,6.81
2023-02-06T02:36:26.422Z,6.77
2023-02-06T02:39:25.012Z,6.78
2023-02-06T02:42:54.097Z,6.76
2023-02-06T02:45:41.390Z,6.78
2023-02-06T02:48:46.242Z,6.79
2023-02-06T02:51:13.639Z,6.77
2023-02-06T02:53:40.443Z,6.78
2023-02-06T02:56:22.551Z,6.81
2023-02-06T02:58:54.686Z,6.82
2023-02-06T03:01:31.919Z,6.83
2023-02-06T03:04:04.605Z,6.84
2023-02-06T03:06:40.612Z,6.84
2023-02-06T03:09:41.122Z,6.83
2023-02-06T03:12:17.093Z,6.81
2023-02-06T03:15:03.896Z,6.78
2023-02-06T03:17:38.120Z,6.73
2023-02-06T03:20:08.430Z,6.72
2023-02-06T03:22:37.274Z,6.69
2023-02-06T03:25:10.673Z,6.70
2023-02-06T03:27:40.855Z,6.67
2023-02-06T03:30:10.531Z,6.68
2023-02-06T03:32:43.188Z,6.69
2023-02-06T03:35:25.563Z,6.66
2023-02-06T03:37:52.955Z,6.64
2023-02-06T03:40:19.993Z,6.62
2023-02-06T03:42:54.675Z,6.61
2023-02-06T03:45:34.436Z,6.57
2023-02-06T03:48:19.728Z,6.55
2023-02-06T03:50:50.169Z,6.51
2023-02-06T03:53:18.841Z,6.48
2023-02-06T03:55:47.269Z,6.46
2023-02-06T03:58:14.767Z,6.41
2023-02-06T04:00:44.067Z,6.39
2023-02-06T04:03:11.741Z,6.37
2023-02-06T04:05:39.677Z,6.36
2023-02-06T04:08:06.864Z,6.33
2023-02-06T04:10:33.691Z,6.32
2023-02-06T04:13:00.450Z,6.30
2023-02-06T04:15:27.229Z,6.29
2023-02-06T04:18:00.566Z,6.26
2023-02-06T04:20:28.665Z,6.24
2023-02-06T04:22:55.456Z,6.22
2023-02-06T04:25:22.220Z,6.22
2023-02-06T04:27:50.332Z,6.21
2023-02-06T04:30:18.047Z,6.18
2023-02-06T04:32:44.914Z,6.16
2023-02-06T04:35:11.659Z,6.16
2023-02-06T04:37:38.605Z,6.13
2023-02-06T04:40:05.941Z,6.11
2023-02-06T04:42:32.737Z,6.11
2023-02-06T04:44:59.500Z,6.11
2023-02-06T04:47:26.300Z,6.08
2023-02-06T04:49:53.183Z,6.06
2023-02-06T04:52:19.973Z,6.02
2023-02-06T04:54:46.947Z,6.01
2023-02-06T04:57:13.727Z,5.99
2023-02-06T04:59:40.507Z,5.97
2023-02-06T05:02:07.287Z,5.95
2023-02-06T05:04:34.149Z,5.94
2023-02-06T05:07:00.891Z,5.91
2023-02-06T05:09:27.710Z,5.87
2023-02-06T05:11:54.468Z,5.84
2023-02-06T05:14:21.228Z,5.81
2023-02-06T05:16:48.198Z,5.80
2023-02-06T05:19:14.974Z,5.78
2023-02-06T05:21:41.753Z,5.79
2023-02-06T05:24:08.520Z,5.79
2023-02-06T05:26:35.305Z,5.80
2023-02-06T05:29:02.062Z,5.83
2023-02-06T05:31:29.024Z,5.84
2023-02-06T05:33:55.860Z,5.85
2023-02-06T05:36:23.148Z,5.86
2023-02-06T05:38:50.691Z,5.85
2023-02-06T05:41:18.319Z,5.81
2023-02-06T05:43:45.348Z,5.78
2023-02-06T05:46:13.022Z,5.79
2023-02-06T05:48:40.567Z,5.80
2023-02-06T05:51:07.665Z,5.76
2023-02-06T05:53:34.587Z,5.75
2023-02-06T05:56:01.378Z,5.74
2023-02-06T05:58:28.421Z,5.74
2023-02-06T06:00:55.266Z,5.72
2023-02-06T06:03:22.019Z,5.72
2023-02-06T06:05:48.840Z,5.72
2023-02-06T06:08:15.875Z,5.73
2023-02-06T06:10:42.654Z,5.73
2023-02-06T06:13:09.480Z,5.72
2023-02-06T06:15:36.742Z,5.72
2023-02-06T06:18:03.899Z,5.72
2023-02-06T06:20:30.789Z,5.73
2023-02-06T06:22:57.677Z,5.73
2023-02-06T06:25:24.473Z,5.74
2023-02-06T06:27:51.270Z,5.77
2023-02-06T06:30:18.225Z,5.77
2023-02-06T06:32:45.006Z,5.75
2023-02-06T06:35:11.846Z,5.76
2023-02-06T06:37:38.583Z,5.76
2023-02-06T06:40:05.768Z,5.77
2023-02-06T06:42:32.546Z,5.78
2023-02-06T06:44:59.309Z,5.79
2023-02-06T06:47:26.057Z,5.77
2023-02-06T06:49:52.838Z,5.77
2023-02-06T06:52:25.030Z,5.78
2023-02-06T06:54:53.313Z,5.78
2023-02-06T06:57:21.929Z,5.77
2023-02-06T06:59:49.029Z,5.76
2023-02-06T07:02:16.676Z,5.76
2023-02-06T07:04:43.743Z,5.76
2023-02-06T07:07:10.559Z,5.76
2023-02-06T07:09:37.384Z,5.75
2023-02-06T07:12:04.700Z,5.75
2023-02-06T07:14:31.647Z,5.77
2023-02-06T07:16:59.854Z,5.78
2023-02-06T07:19:26.736Z,5.81
2023-02-06T07:21:53.556Z,5.81
2023-02-06T07:24:20.340Z,5.82
2023-02-06T07:26:47.165Z,5.82
2023-02-06T07:29:13.924Z,5.84
2023-02-06T07:31:40.863Z,5.87
2023-02-06T07:34:07.683Z,5.89
2023-02-06T07:36:35.527Z,5.90
2023-02-06T07:39:03.987Z,5.91
2023-02-06T07:41:31.038Z,5.92
2023-02-06T07:43:57.789Z,5.95
2023-02-06T07:46:24.673Z,5.97
2023-02-06T07:48:51.504Z,6.01
2023-02-06T07:51:18.335Z,6.05
2023-02-06T07:53:45.111Z,6.06
2023-02-06T07:56:16.340Z,6.06
2023-02-06T07:58:43.192Z,6.07
2023-02-06T08:01:10.668Z,6.10
2023-02-06T08:03:37.635Z,6.14
2023-02-06T08:06:14.580Z,6.16
2023-02-06T08:08:43.006Z,6.19
2023-02-06T08:11:13.181Z,6.22
2023-02-06T08:13:40.021Z,6.25
2023-02-06T08:16:11.768Z,6.27
2023-02-06T08:18:38.909Z,6.28
2023-02-06T08:21:11.191Z,6.29
2023-02-06T08:23:38.708Z,6.30
2023-02-06T08:26:16.982Z,6.33
2023-02-06T08:28:46.491Z,6.29
2023-02-06T08:31:29.404Z,6.25
2023-02-06T08:33:56.280Z,6.22
2023-02-06T08:36:24.365Z,6.21
2023-02-06T08:38:52.433Z,6.19
2023-02-06T08:41:25.626Z,6.16
2023-02-06T08:43:58.448Z,6.17
2023-02-06T08:46:28.454Z,6.18
2023-02-06T08:49:07.123Z,6.22
2023-02-06T08:51:35.468Z,6.28
2023-02-06T08:54:09.013Z,6.33
2023-02-06T08:56:36.757Z,6.37
2023-02-06T08:59:05.454Z,6.44
2023-02-06T09:01:35.939Z,6.51
2023-02-06T09:04:07.034Z,6.56
2023-02-06T09:06:41.671Z,6.59
2023-02-06T09:09:10.012Z,6.57
2023-02-06T09:11:37.512Z,6.59
2023-02-06T09:14:05.942Z,6.66
2023-02-06T09:16:33.746Z,6.72
2023-02-06T09:19:02.217Z,6.75
2023-02-06T09:21:32.626Z,6.81
2023-02-06T09:24:03.398Z,6.84
2023-02-06T09:26:38.903Z,6.89
2023-02-06T09:29:10.079Z,6.98
2023-02-06T09:31:40.059Z,7.05
2023-02-06T09:34:08.005Z,7.12
2023-02-06T09:36:36.720Z,7.26
2023-02-06T09:39:06.490Z,7.44
2023-02-06T09:41:55.871Z,7.59
2023-02-06T09:44:34.000Z,7.75
2023-02-06T09:47:06.503Z,7.88
2023-02-06T09:49:44.472Z,7.99
2023-02-06T09:52:40.386Z,8.08
2023-02-06T09:55:57.001Z,8.19
2023-02-06T09:58:41.672Z,8.26
2023-02-06T10:01:38.731Z,8.24
2023-02-06T10:04:33.710Z,8.23
2023-02-06T10:07:31.759Z,8.24
2023-02-06T10:10:11.187Z,8.29
2023-02-06T10:13:12.547Z,8.38
2023-02-06T10:15:46.533Z,8.39
2023-02-06T10:18:19.008Z,8.39
2023-02-06T10:20:55.371Z,8.36
2023-02-06T10:23:47.459Z,8.38
2023-02-06T10:26:18.123Z,8.36
2023-02-06T10:28:51.219Z,8.31
2023-02-06T10:31:28.346Z,8.21
2023-02-06T10:34:35.484Z,8.16
2023-02-06T10:37:30.668Z,8.15
2023-02-06T10:40:40.070Z,8.13
2023-02-06T10:43:43.786Z,8.13
2023-02-06T10:46:46.054Z,8.14
2023-02-06T10:49:23.142Z,8.17
2023-02-06T10:51:57.875Z,8.23
2023-02-06T10:54:36.890Z,8.29
2023-02-06T10:57:12.909Z,8.34
2023-02-06T10:59:47.971Z,8.38
2023-02-06T11:02:32.835Z,8.39
2023-02-06T11:05:19.451Z,8.37
2023-02-06T11:07:51.780Z,8.36
2023-02-06T11:10:28.655Z,8.39
2023-02-06T11:13:08.263Z,8.41
2023-02-06T11:15:55.452Z,8.43
2023-02-06T11:18:29.921Z,8.44
2023-02-06T11:20:56.875Z,8.44
2023-02-06T11:23:28.051Z,8.48
2023-02-06T11:26:16.154Z,8.50
2023-02-06T11:28:54.441Z,8.46
2023-02-06T11:31:53.653Z,8.42
2023-02-06T11:34:53.072Z,8.42
2023-02-06T11:37:39.529Z,8.44
2023-02-06T11:40:18.415Z,8.47
2023-02-06T11:42:52.746Z,8.45
2023-02-06T11:45:22.769Z,8.50
2023-02-06T11:47:49.860Z,8.54
2023-02-06T11:50:26.229Z,8.55
2023-02-06T11:53:18.795Z,8.50
2023-02-06T11:55:58.578Z,8.48
2023-02-06T11:58:28.052Z,8.45
2023-02-06T12:01:05.049Z,8.46
2023-02-06T12:03:58.949Z,8.45
2023-02-06T12:06:40.384Z,8.46
2023-02-06T12:09:12.823Z,8.45
2023-02-06T12:12:10.135Z,8.48
2023-02-06T12:14:58.332Z,8.48
2023-02-06T12:17:39.971Z,8.46
2023-02-06T12:20:20.819Z,8.45
2023-02-06T12:22:57.748Z,8.47
2023-02-06T12:25:39.263Z,8.46
2023-02-06T12:28:29.185Z,8.47
2023-02-06T12:31:04.891Z,8.49
2023-02-06T12:33:46.178Z,8.49
2023-02-06T12:36:20.953Z,8.49
2023-02-06T12:39:04.836Z,8.50
2023-02-06T12:42:00.868Z,8.52
2023-02-06T12:44:39.312Z,8.54
2023-02-06T12:47:25.213Z,8.60
2023-02-06T12:50:10.201Z,8.64
2023-02-06T12:53:01.414Z,8.66
2023-02-06T12:55:47.905Z,8.67
2023-02-06T12:58:34.082Z,8.66
2023-02-06T13:01:42.100Z,8.62
2023-02-06T13:04:23.559Z,8.56
2023-02-06T13:07:05.567Z,8.60
2023-02-06T13:09:59.923Z,8.71
2023-02-06T13:12:30.195Z,8.82
2023-02-06T13:15:07.140Z,8.88
2023-02-06T13:17:39.024Z,8.86
2023-02-06T13:20:15.749Z,8.85
2023-02-06T13:23:11.238Z,8.83
2023-02-06T13:25:38.173Z,8.85
2023-02-06T13:28:36.895Z,8.90
2023-02-06T13:31:07.981Z,8.92
2023-02-06T13:34:00.819Z,8.95
2023-02-06T13:36:51.275Z,8.95
2023-02-06T13:39:31.347Z,8.91
2023-02-06T13:42:03.755Z,8.82
2023-02-06T13:44:38.509Z,8.77
2023-02-06T13:47:49.320Z,8.74
2023-02-06T13:50:59.746Z,8.77
2023-02-06T13:53:36.603Z,8.78
2023-02-06T13:56:41.916Z,8.80
2023-02-06T13:59:39.616Z,8.80
2023-02-06T14:02:23.048Z,8.82
2023-02-06T14:04:50.632Z,8.79
2023-02-06T14:07:39.944Z,8.74
2023-02-06T14:10:52.430Z,8.69
2023-02-06T14:13:43.429Z,8.65
2023-02-06T14:16:42.029Z,8.59
2023-02-06T14:19:34.103Z,8.54
2023-02-06T14:22:29.672Z,8.48
2023-02-06T14:25:33.237Z,8.48
2023-02-06T14:28:21.830Z,8.50
2023-02-06T14:31:17.346Z,8.53
2023-02-06T14:34:22.841Z,8.57
2023-02-06T14:37:07.142Z,8.56
2023-02-06T14:39:53.786Z,8.53
2023-02-06T14:42:27.616Z,8.45
2023-02-06T14:45:41.799Z,8.35
2023-02-06T14:48:24.614Z,8.27
2023-02-06T14:50:56.736Z,8.22
2023-02-06T14:53:35.429Z,8.20
2023-02-06T14:56:26.954Z,8.15
2023-02-06T14:58:54.028Z,8.09
2023-02-06T15:01:26.830Z,8.05
2023-02-06T15:04:18.032Z,8.01
2023-02-06T15:06:58.429Z,7.95
2023-02-06T15:09:34.620Z,7.91
2023-02-06T15:12:18.640Z,7.87
2023-02-06T15:15:17.472Z,7.83
2023-02-06T15:17:58.832Z,7.79
2023-02-06T15:20:41.713Z,7.74
2023-02-06T15:23:56.944Z,7.69
2023-02-06T15:26:46.395Z,7.62
2023-02-06T15:29:26.828Z,7.57
2023-02-06T15:32:00.881Z,7.55
2023-02-06T15:34:27.708Z,7.48
2023-02-06T15:36:54.843Z,7.43
2023-02-06T15:39:21.932Z,7.41
2023-02-06T15:41:51.891Z,7.40
2023-02-06T15:44:21.720Z,7.36
2023-02-06T15:46:50.547Z,7.35
2023-02-06T15:49:43.790Z,7.32
2023-02-06T15:52:32.218Z,7.26
2023-02-06T15:55:00.352Z,7.23
2023-02-06T15:57:35.598Z,7.19
2023-02-06T16:00:09.006Z,7.15
2023-02-06T16:02:39.694Z,7.10
2023-02-06T16:05:09.244Z,7.06
2023-02-06T16:07:36.603Z,7.04
2023-02-06T16:10:21.487Z,7.00
2023-02-06T16:12:48.853Z,6.96
2023-02-06T16:15:34.911Z,6.92
2023-02-06T16:18:33.191Z,6.86
2023-02-06T16:21:17.929Z,6.81
2023-02-06T16:24:07.170Z,6.75
2023-02-06T16:26:49.745Z,6.70
2023-02-06T16:29:25.824Z,6.64
2023-02-06T16:31:59.889Z,6.59
2023-02-06T16:34:40.600Z,6.50
2023-02-06T16:37:31.941Z,6.44
2023-02-06T16:39:58.715Z,6.39
2023-02-06T16:42:33.689Z,6.37
2023-02-06T16:45:15.764Z,6.35
2023-02-06T16:47:42.559Z,6.30
2023-02-06T16:50:10.549Z,6.27
2023-02-06T16:52:41.559Z,6.23
2023-02-06T16:55:18.186Z,6.20
2023-02-06T16:57:46.907Z,6.17
2023-02-06T17:00:27.106Z,6.14
2023-02-06T17:02:55.357Z,6.10
2023-02-06T17:05:25.450Z,6.08
2023-02-06T17:07:53.633Z,6.08
2023-02-06T17:10:25.350Z,6.08
2023-02-06T17:12:52.868Z,6.07
2023-02-06T17:15:20.205Z,6.05
2023-02-06T17:17:47.321Z,6.01
2023-02-06T17:20:38.122Z,6.00
2023-02-06T17:23:05.381Z,5.96
2023-02-06T17:25:32.779Z,5.95
2023-02-06T17:28:00.167Z,5.96
2023-02-06T17:30:27.291Z,5.97
2023-02-06T17:32:55.042Z,5.95
2023-02-06T17:35:21.861Z,5.97
2023-02-06T17:37:49.180Z,6.00
2023-02-06T17:40:22.305Z,6.00
2023-02-06T17:42:49.798Z,5.99
2023-02-06T17:45:17.225Z,6.00
2023-02-06T17:47:44.222Z,5.99
2023-02-06T17:50:15.997Z,5.99
2023-02-06T17:52:42.769Z,5.97
2023-02-06T17:55:09.972Z,5.97
2023-02-06T17:57:38.254Z,6.00
2023-02-06T18:00:09.048Z,6.01
2023-02-06T18:02:36.743Z,6.03
2023-02-06T18:05:04.759Z,6.01
2023-02-06T18:07:31.585Z,5.96
2023-02-06T18:09:58.568Z,5.91
2023-02-06T18:12:25.381Z,5.86
2023-02-06T18:14:52.183Z,5.78
2023-02-06T18:17:20.083Z,5.73
2023-02-06T18:19:48.211Z,5.68
2023-02-06T18:22:19.241Z,5.63
2023-02-06T18:24:47.409Z,5.59
2023-02-06T18:27:15.597Z,5.54
2023-02-06T18:29:49.728Z,5.47
2023-02-06T18:32:18.713Z,5.44
2023-02-06T18:34:45.581Z,5.37
2023-02-06T18:37:12.428Z,5.32
2023-02-06T18:39:39.460Z,5.29
2023-02-06T18:42:24.686Z,5.25
2023-02-06T18:44:51.586Z,5.18
2023-02-06T18:47:19.625Z,5.15
2023-02-06T18:49:46.710Z,5.10
2023-02-06T18:52:14.053Z,5.07
2023-02-06T18:54:40.842Z,5.03
2023-02-06T18:57:07.730Z,5.02
2023-02-06T18:59:35.528Z,4.99
2023-02-06T19:02:02.966Z,4.93
2023-02-06T19:04:30.102Z,4.93
2023-02-06T19:06:57.022Z,4.89
2023-02-06T19:09:23.861Z,4.87
2023-02-06T19:11:50.714Z,4.83
2023-02-06T19:14:22.448Z,4.80
2023-02-06T19:16:51.571Z,4.78
2023-02-06T19:19:19.145Z,4.74
2023-02-06T19:21:46.021Z,4.71
2023-02-06T19:24:18.360Z,4.69
2023-02-06T19:26:45.266Z,4.63
2023-02-06T19:29:16.799Z,4.62
2023-02-06T19:31:44.416Z,4.59
2023-02-06T19:34:11.420Z,4.56
2023-02-06T19:36:41.411Z,4.54
2023-02-06T19:39:17.087Z,4.51
2023-02-06T19:45:05.812Z,4.41
2023-02-06T19:47:52.389Z,4.38
2023-02-06T19:50:30.988Z,4.36
2023-02-06T19:53:04.048Z,4.34
2023-02-06T19:56:30.673Z,4.28
2023-02-06T20:00:44.975Z,4.25
2023-02-06T20:04:13.404Z,4.26
2023-02-06T20:06:26.113Z,4.29
2023-02-06T20:08:56.841Z,4.33
2023-02-06T20:11:27.068Z,4.33
2023-02-06T20:14:00.355Z,4.35
2023-02-06T20:16:58.750Z,4.34
2023-02-06T20:19:39.135Z,4.32
2023-02-06T20:22:06.087Z,4.29
2023-02-06T20:24:33.271Z,4.28
2023-02-06T20:27:04.206Z,4.26
2023-02-06T20:29:40.106Z,4.24
2023-02-06T20:37:06.999Z,4.11
2023-02-06T21:04:47.812Z,3.73
2023-02-06T21:07:19.265Z,3.69
2023-02-06T21:09:51.799Z,3.67
2023-02-06T21:12:21.290Z,3.68
2023-02-06T21:15:50.134Z,3.68
2023-02-06T21:18:49.901Z,3.65
2023-02-06T21:21:46.201Z,3.62
2023-02-06T21:24:27.022Z,3.58
2023-02-06T21:27:05.260Z,3.58
2023-02-06T21:29:51.488Z,3.56
2023-02-06T21:32:18.390Z,3.54
2023-02-06T21:34:45.252Z,3.55
2023-02-06T21:37:12.080Z,3.54
2023-02-06T21:39:40.927Z,3.52
2023-02-06T21:42:09.726Z,3.52
2023-02-06T21:44:38.679Z,3.51
2023-02-06T21:47:05.522Z,3.48
2023-02-06T21:49:32.321Z,3.47
2023-02-06T21:51:59.550Z,3.46
2023-02-06T21:54:26.478Z,3.45
2023-02-06T21:56:53.327Z,3.44
2023-02-06T21:59:20.096Z,3.43
2023-02-06T22:01:46.918Z,3.43
2023-02-06T22:04:13.810Z,3.40
2023-02-06T22:06:41.052Z,3.39
2023-02-06T22:09:15.056Z,3.39
2023-02-06T22:11:42.761Z,3.37
2023-02-06T22:14:16.684Z,3.37
2023-02-06T22:16:43.440Z,3.29
2023-02-06T22:19:10.850Z,3.27
2023-02-06T22:21:37.813Z,3.23
2023-02-06T22:24:07.821Z,3.24
2023-02-06T22:26:38.489Z,3.25
2023-02-06T22:29:12.913Z,3.25
2023-02-06T22:31:43.017Z,3.23
2023-02-06T22:34:17.416Z,3.23
2023-02-06T22:36:46.924Z,3.21
2023-02-06T22:39:15.177Z,3.20
2023-02-06T22:41:44.703Z,3.19
2023-02-06T22:44:16.130Z,3.18
2023-02-06T22:46:46.225Z,3.18
2023-02-06T22:49:13.185Z,3.16
2023-02-06T22:51:41.262Z,3.14
2023-02-06T22:54:10.134Z,3.15
2023-02-06T22:56:38.780Z,3.14
2023-02-06T22:59:13.219Z,3.13
2023-02-06T23:01:44.871Z,3.11
2023-02-06T23:04:21.527Z,3.10
2023-02-06T23:06:49.533Z,3.08
2023-02-06T23:09:28.054Z,3.07
2023-02-06T23:11:58.221Z,3.03
2023-02-06T23:14:26.532Z,3.02
2023-02-06T23:16:53.510Z,2.99
2023-02-06T23:19:20.946Z,2.98
2023-02-06T23:21:51.075Z,2.97
2023-02-06T23:24:19.800Z,2.95
2023-02-06T23:26:48.889Z,2.92
2023-02-06T23:29:17.728Z,2.90
2023-02-06T23:31:46.903Z,2.88
2023-02-06T23:34:14.889Z,2.85
2023-02-06T23:36:41.678Z,2.82
2023-02-06T23:39:08.683Z,2.79
2023-02-06T23:41:35.687Z,2.78
2023-02-06T23:44:06.832Z,2.75
2023-02-06T23:46:36.846Z,2.72
2023-02-06T23:49:05.151Z,2.69
2023-02-06T23:51:32.880Z,2.68
2023-02-06T23:53:59.857Z,2.66
2023-02-06T23:56:29.604Z,2.65
2023-02-06T23:58:58.578Z,2.64
